Alcatraz Flyer — WDE3382 — position and weather

sailwx.info

Track history (hours):
 
Tides and Currents Weather Stations Pressure Air Temp Water Temp Dewpoint Dewpoint Depression Visibility Wind Speed Wind Dir Waves Ship Positions

Alcatraz Flyer

Owner: Alcatraz Cruises, San Francisco, CA. More information available from US FCC via Universal Licensing System and Coast Guard Vessel Documentation Center.

Last reported at 2018-Jan-30 18:30 UTC. Time now 2018-Feb-19 18:11 UTC.
Position N 37°47' W 122°17'.
Warning: this ship's position is 19 days out of date.

Length 40 m; draft 1.5 m.

Type: Passenger vessel. MMSI: 367338290.

Date/timePositionNaut miles runAvg speedWind from/ knotsBaromVisibWave heightAir tempDewpointWater temp
2018-Jan-30 18:30N 37°47' W 122°17'3 6.9
2018-Jan-30 18:00N 37°48' W 122°22'1 0.0
2018-Jan-28 23:14N 37°48' W 122°24'0 1.5
2018-Jan-28 23:00N 37°48' W 122°24'0 0.7
2018-Jan-28 22:30N 37°48' W 122°24'1 2.9
2018-Jan-28 22:00N 37°50' W 122°25'1 2.8
2018-Jan-28 21:30N 37°48' W 122°24'1 2.9
2018-Jan-28 21:00N 37°50' W 122°25'1 2.9
2018-Jan-28 20:30N 37°48' W 122°24'1 2.8
2018-Jan-28 20:00N 37°50' W 122°25'1 2.8
2018-Jan-28 19:30N 37°48' W 122°24'1 1.8
2018-Jan-28 19:00N 37°49' W 122°25'1 1.8
2018-Jan-28 18:30N 37°48' W 122°24'0 0.3
2018-Jan-28 18:00N 37°49' W 122°24'0 0.3
2018-Jan-28 17:30N 37°48' W 122°24'1 2.9
2018-Jan-28 17:00N 37°50' W 122°25'1 2.9
2018-Jan-28 16:30N 37°48' W 122°24'1 1.4
2018-Jan-28 16:00N 37°48' W 122°24'0 0.0
2018-Jan-28 01:28N 37°48' W 122°24'1 1.2
2018-Jan-28 01:00N 37°48' W 122°24'2 3.2
2018-Jan-28 00:30N 37°50' W 122°25'0 0.8
2018-Jan-27 23:59N 37°49' W 122°25'1 2.1
2018-Jan-27 23:30N 37°48' W 122°24'1 2.8
2018-Jan-27 23:00N 37°50' W 122°25'1 2.9
2018-Jan-27 22:30N 37°48' W 122°24'1 2.9
2018-Jan-27 22:01N 37°50' W 122°25'1 2.7
2018-Jan-27 21:29N 37°48' W 122°24'1 2.6
2018-Jan-27 21:00N 37°49' W 122°25'1 2.4
2018-Jan-27 20:30N 37°48' W 122°24'1 2.2
2018-Jan-27 20:00N 37°49' W 122°25'1 2.1
2018-Jan-27 19:30N 37°48' W 122°24'1 1.8
2018-Jan-27 19:00N 37°49' W 122°25'1 1.7
2018-Jan-27 18:31N 37°48' W 122°24'0 0.3
2018-Jan-27 18:01N 37°49' W 122°24'0 0.3
2018-Jan-27 17:31N 37°48' W 122°24'1 2.9
2018-Jan-27 17:01N 37°50' W 122°25'1 2.9
2018-Jan-27 16:31N 37°48' W 122°24'1 0.0
2018-Jan-27 01:26N 37°48' W 122°24'1 1.7
2018-Jan-27 01:00N 37°48' W 122°24'1 2.8
2018-Jan-27 00:30N 37°50' W 122°25'0 0.7
2018-Jan-27 00:00N 37°49' W 122°25'1 2.0
2018-Jan-26 23:28N 37°48' W 122°24'1 3.1
2018-Jan-26 23:00N 37°50' W 122°25'1 3.0
2018-Jan-26 22:30N 37°48' W 122°24'1 2.8
2018-Jan-26 22:00N 37°50' W 122°25'1 2.9
2018-Jan-26 21:30N 37°48' W 122°24'1 2.0
2018-Jan-26 21:00N 37°49' W 122°25'1 2.1
2018-Jan-26 20:30N 37°48' W 122°24'1 2.0
2018-Jan-26 20:00N 37°49' W 122°25'1 2.0
2018-Jan-26 19:30N 37°48' W 122°24'1 1.8
2018-Jan-26 19:00N 37°49' W 122°25'1 1.8
2018-Jan-26 18:30N 37°48' W 122°24'0 0.4
2018-Jan-26 18:00N 37°49' W 122°24'0 0.4
2018-Jan-26 17:30N 37°48' W 122°24'1 2.9
2018-Jan-26 17:00N 37°50' W 122°25'1 2.9
2018-Jan-26 16:30N 37°48' W 122°24'0 0.3
2018-Jan-26 16:00N 37°49' W 122°24'1 1.5
2018-Jan-26 15:30N 37°48' W 122°24'0 0.0
2018-Jan-25 00:18N 37°48' W 122°24'0 0.1
2018-Jan-25 00:00N 37°48' W 122°24'2 4.2
2018-Jan-24 23:30N 37°50' W 122°25'1 2.9
2018-Jan-24 23:00N 37°48' W 122°24'0 0.6
2018-Jan-24 22:30N 37°48' W 122°24'  
Track history (hours):
 
Tides and Currents Weather Stations Pressure Air Temp Water Temp Dewpoint Dewpoint Depression Visibility Wind Speed Wind Dir Waves Ship Positions

Alcatraz Flyer

Owner: Alcatraz Cruises, San Francisco, CA. More information available from US FCC via Universal Licensing System and Coast Guard Vessel Documentation Center.

Last reported at 2018-Jan-30 18:30 UTC. Time now 2018-Feb-19 18:11 UTC.
Position N 37°47' W 122°17'.
Warning: this ship's position is 19 days out of date.

Length 40 m; draft 1.5 m.

Type: Passenger vessel. MMSI: 367338290.

Date/timePositionNaut miles runAvg speedWind from/ knotsBaromVisibWave heightAir tempDewpointWater temp
2018-Jan-30 18:30N 37°47' W 122°17'3 6.9
2018-Jan-30 18:00N 37°48' W 122°22'1 0.0
2018-Jan-28 23:14N 37°48' W 122°24'0 1.5
2018-Jan-28 23:00N 37°48' W 122°24'0 0.7
2018-Jan-28 22:30N 37°48' W 122°24'1 2.9
2018-Jan-28 22:00N 37°50' W 122°25'1 2.8
2018-Jan-28 21:30N 37°48' W 122°24'1 2.9
2018-Jan-28 21:00N 37°50' W 122°25'1 2.9
2018-Jan-28 20:30N 37°48' W 122°24'1 2.8
2018-Jan-28 20:00N 37°50' W 122°25'1 2.8
2018-Jan-28 19:30N 37°48' W 122°24'1 1.8
2018-Jan-28 19:00N 37°49' W 122°25'1 1.8
2018-Jan-28 18:30N 37°48' W 122°24'0 0.3
2018-Jan-28 18:00N 37°49' W 122°24'0 0.3
2018-Jan-28 17:30N 37°48' W 122°24'1 2.9
2018-Jan-28 17:00N 37°50' W 122°25'1 2.9
2018-Jan-28 16:30N 37°48' W 122°24'1 1.4
2018-Jan-28 16:00N 37°48' W 122°24'0 0.0
2018-Jan-28 01:28N 37°48' W 122°24'1 1.2
2018-Jan-28 01:00N 37°48' W 122°24'2 3.2
2018-Jan-28 00:30N 37°50' W 122°25'0 0.8
2018-Jan-27 23:59N 37°49' W 122°25'1 2.1
2018-Jan-27 23:30N 37°48' W 122°24'1 2.8
2018-Jan-27 23:00N 37°50' W 122°25'1 2.9
2018-Jan-27 22:30N 37°48' W 122°24'1 2.9
2018-Jan-27 22:01N 37°50' W 122°25'1 2.7
2018-Jan-27 21:29N 37°48' W 122°24'1 2.6
2018-Jan-27 21:00N 37°49' W 122°25'1 2.4
2018-Jan-27 20:30N 37°48' W 122°24'1 2.2
2018-Jan-27 20:00N 37°49' W 122°25'1 2.1
2018-Jan-27 19:30N 37°48' W 122°24'1 1.8
2018-Jan-27 19:00N 37°49' W 122°25'1 1.7
2018-Jan-27 18:31N 37°48' W 122°24'0 0.3
2018-Jan-27 18:01N 37°49' W 122°24'0 0.3
2018-Jan-27 17:31N 37°48' W 122°24'1 2.9
2018-Jan-27 17:01N 37°50' W 122°25'1 2.9
2018-Jan-27 16:31N 37°48' W 122°24'1 0.0
2018-Jan-27 01:26N 37°48' W 122°24'1 1.7
2018-Jan-27 01:00N 37°48' W 122°24'1 2.8
2018-Jan-27 00:30N 37°50' W 122°25'0 0.7
2018-Jan-27 00:00N 37°49' W 122°25'1 2.0
2018-Jan-26 23:28N 37°48' W 122°24'1 3.1
2018-Jan-26 23:00N 37°50' W 122°25'1 3.0
2018-Jan-26 22:30N 37°48' W 122°24'1 2.8
2018-Jan-26 22:00N 37°50' W 122°25'1 2.9
2018-Jan-26 21:30N 37°48' W 122°24'1 2.0
2018-Jan-26 21:00N 37°49' W 122°25'1 2.1
2018-Jan-26 20:30N 37°48' W 122°24'1 2.0
2018-Jan-26 20:00N 37°49' W 122°25'1 2.0
2018-Jan-26 19:30N 37°48' W 122°24'1 1.8
2018-Jan-26 19:00N 37°49' W 122°25'1 1.8
2018-Jan-26 18:30N 37°48' W 122°24'0 0.4
2018-Jan-26 18:00N 37°49' W 122°24'0 0.4
2018-Jan-26 17:30N 37°48' W 122°24'1 2.9
2018-Jan-26 17:00N 37°50' W 122°25'1 2.9
2018-Jan-26 16:30N 37°48' W 122°24'0 0.3
2018-Jan-26 16:00N 37°49' W 122°24'1 1.5
2018-Jan-26 15:30N 37°48' W 122°24'0 0.0
2018-Jan-25 00:18N 37°48' W 122°24'0 0.1
2018-Jan-25 00:00N 37°48' W 122°24'2 4.2
2018-Jan-24 23:30N 37°50' W 122°25'1 2.9
2018-Jan-24 23:00N 37°48' W 122°24'0 0.6
2018-Jan-24 22:30N 37°48' W 122°24'  

Dump ship's entire track history